createdAt,value
2017-01-08T00:00:20.779Z,0
2017-01-08T00:01:01.361Z,0
2017-01-08T00:01:41.943Z,0
2017-01-08T00:02:22.519Z,0
2017-01-08T00:03:03.100Z,0
2017-01-08T00:03:43.690Z,0
2017-01-08T00:04:24.280Z,0
2017-01-08T00:05:04.880Z,0
2017-01-08T00:05:45.463Z,0
2017-01-08T00:06:26.054Z,0
2017-01-08T00:07:06.636Z,0
2017-01-08T00:07:47.218Z,0
2017-01-08T00:08:27.794Z,0
2017-01-08T00:09:08.387Z,0
2017-01-08T00:09:48.979Z,0
2017-01-08T00:10:29.566Z,0
2017-01-08T00:11:10.152Z,0
2017-01-08T00:11:50.756Z,0
2017-01-08T00:12:31.335Z,0
2017-01-08T00:13:11.924Z,0
2017-01-08T00:13:52.513Z,0
2017-01-08T00:14:33.100Z,0
2017-01-08T00:15:13.697Z,0
2017-01-08T00:15:54.289Z,0
2017-01-08T00:16:34.888Z,0
2017-01-08T00:17:15.480Z,0
2017-01-08T00:17:56.089Z,0
2017-01-08T00:18:36.689Z,0
2017-01-08T00:19:17.272Z,0
2017-01-08T00:19:57.849Z,0
2017-01-08T00:20:38.434Z,0
2017-01-08T00:21:19.021Z,0
2017-01-08T00:21:59.611Z,0
2017-01-08T00:22:40.215Z,0
2017-01-08T00:23:20.800Z,0
2017-01-08T00:24:01.398Z,0
2017-01-08T00:24:41.979Z,0
2017-01-08T00:25:22.553Z,0
2017-01-08T00:26:03.143Z,0
2017-01-08T00:26:43.731Z,0
2017-01-08T00:27:24.307Z,0
2017-01-08T00:28:04.907Z,0
2017-01-08T00:28:45.500Z,0
2017-01-08T00:29:26.086Z,0
2017-01-08T00:30:06.698Z,0
2017-01-08T00:30:47.277Z,0
2017-01-08T00:31:27.867Z,0
2017-01-08T00:32:08.471Z,0
2017-01-08T00:32:49.066Z,0
2017-01-08T00:33:29.655Z,0
2017-01-08T00:34:10.256Z,0
2017-01-08T00:34:50.836Z,0
2017-01-08T00:35:31.428Z,0
2017-01-08T00:36:12.036Z,0
2017-01-08T00:36:52.629Z,0
2017-01-08T00:37:33.220Z,0
2017-01-08T00:38:13.813Z,0
2017-01-08T00:38:54.411Z,0
2017-01-08T00:39:35.004Z,0
2017-01-08T00:40:15.585Z,0
2017-01-08T00:40:56.181Z,0
2017-01-08T00:41:37.783Z,0
2017-01-08T00:42:18.371Z,0
2017-01-08T00:42:58.974Z,0
2017-01-08T00:43:39.563Z,0
2017-01-08T00:44:20.145Z,0
2017-01-08T00:45:00.737Z,0
2017-01-08T00:45:41.325Z,0
2017-01-08T00:46:21.918Z,0
2017-01-08T00:47:02.501Z,0
2017-01-08T00:47:43.081Z,0
2017-01-08T00:48:23.670Z,0
2017-01-08T00:49:04.248Z,0
2017-01-08T00:49:44.837Z,0
2017-01-08T00:50:25.443Z,0
2017-01-08T00:51:06.023Z,0
2017-01-08T00:51:46.621Z,0
2017-01-08T00:52:27.197Z,0
2017-01-08T00:53:07.766Z,0
2017-01-08T00:53:48.364Z,0
2017-01-08T00:54:28.935Z,0
2017-01-08T00:55:09.518Z,0
2017-01-08T00:55:50.103Z,0
2017-01-08T00:56:30.693Z,0
2017-01-08T00:57:11.295Z,0
2017-01-08T00:57:51.918Z,0
2017-01-08T00:58:32.505Z,0
2017-01-08T00:59:13.094Z,0
2017-01-08T00:59:53.673Z,0
2017-01-08T01:00:34.258Z,0
2017-01-08T01:01:14.846Z,0
2017-01-08T01:01:55.427Z,0
2017-01-08T01:02:36.015Z,0
2017-01-08T01:03:16.606Z,0
2017-01-08T01:03:57.190Z,0
2017-01-08T01:04:37.769Z,0
2017-01-08T01:05:18.360Z,0
2017-01-08T01:05:58.946Z,0
2017-01-08T01:06:39.526Z,0
2017-01-08T01:07:20.110Z,0
2017-01-08T01:08:00.689Z,0
2017-01-08T01:08:41.268Z,0
2017-01-08T01:09:21.855Z,0
2017-01-08T01:10:02.452Z,0
2017-01-08T01:10:43.025Z,0
2017-01-08T01:11:23.624Z,0
2017-01-08T01:12:04.212Z,0
2017-01-08T01:12:44.793Z,0
2017-01-08T01:13:25.383Z,0
2017-01-08T01:14:05.978Z,0
2017-01-08T01:14:46.566Z,0
2017-01-08T01:15:27.151Z,0
2017-01-08T01:16:07.751Z,0
2017-01-08T01:16:48.343Z,0
2017-01-08T01:17:28.933Z,0
2017-01-08T01:18:09.542Z,0
2017-01-08T01:18:50.118Z,0
2017-01-08T01:19:30.715Z,0
2017-01-08T01:20:11.304Z,0
2017-01-08T01:20:51.912Z,0
2017-01-08T01:21:32.507Z,0
2017-01-08T01:22:13.076Z,0
2017-01-08T01:22:53.658Z,0
2017-01-08T01:23:34.251Z,0
2017-01-08T01:24:14.831Z,0
2017-01-08T01:24:55.409Z,0
2017-01-08T01:25:35.996Z,0
2017-01-08T01:26:16.588Z,0
2017-01-08T01:26:57.170Z,0
2017-01-08T01:27:37.753Z,0
2017-01-08T01:28:18.339Z,0
2017-01-08T01:28:58.918Z,0
2017-01-08T01:29:39.506Z,0
2017-01-08T01:30:20.091Z,0
2017-01-08T01:31:00.674Z,0
2017-01-08T01:31:41.262Z,0
2017-01-08T01:32:21.848Z,0
2017-01-08T01:33:02.434Z,0
2017-01-08T01:33:43.020Z,0
2017-01-08T01:34:23.609Z,0
2017-01-08T01:35:04.194Z,0
2017-01-08T01:35:44.780Z,0
2017-01-08T01:36:25.355Z,0
2017-01-08T01:37:05.941Z,0
2017-01-08T01:37:46.543Z,0
2017-01-08T01:38:27.122Z,0
2017-01-08T01:39:07.708Z,0
2017-01-08T01:39:48.291Z,0
2017-01-08T01:40:28.873Z,0
2017-01-08T01:41:09.459Z,0
2017-01-08T01:41:50.059Z,0
2017-01-08T01:42:30.641Z,0
2017-01-08T01:43:11.239Z,0
2017-01-08T01:43:51.817Z,0
2017-01-08T01:44:32.397Z,0
2017-01-08T01:45:12.994Z,0
2017-01-08T01:45:53.573Z,0
2017-01-08T01:46:34.159Z,0
2017-01-08T01:47:14.745Z,0
2017-01-08T01:47:55.327Z,0
2017-01-08T01:48:35.929Z,0
2017-01-08T01:49:16.522Z,0
2017-01-08T01:49:57.101Z,0
2017-01-08T01:50:37.695Z,0
2017-01-08T01:51:18.277Z,0
2017-01-08T01:51:58.855Z,0
2017-01-08T01:52:39.448Z,0
2017-01-08T01:53:20.029Z,0
2017-01-08T01:54:00.611Z,0
2017-01-08T01:54:41.207Z,0
2017-01-08T01:55:21.793Z,0
2017-01-08T01:56:02.376Z,0
2017-01-08T01:56:42.965Z,0
2017-01-08T01:57:23.548Z,0
2017-01-08T01:58:04.131Z,0
2017-01-08T01:58:44.707Z,0
2017-01-08T01:59:25.301Z,0
2017-01-08T02:00:05.877Z,0
2017-01-08T02:00:46.465Z,0
2017-01-08T02:01:27.051Z,0
2017-01-08T02:02:07.651Z,0
2017-01-08T02:02:48.213Z,0
2017-01-08T02:03:28.799Z,0
2017-01-08T02:04:09.386Z,0
2017-01-08T02:04:49.987Z,0
2017-01-08T02:05:30.579Z,0
2017-01-08T02:06:11.154Z,0
2017-01-08T02:06:51.741Z,0
2017-01-08T02:07:32.327Z,0
2017-01-08T02:08:12.906Z,0
2017-01-08T02:08:53.490Z,0
2017-01-08T02:09:34.063Z,0
2017-01-08T02:10:14.651Z,0
2017-01-08T02:10:55.247Z,0
2017-01-08T02:11:35.845Z,0
2017-01-08T02:12:16.429Z,0
2017-01-08T02:12:57.019Z,0
2017-01-08T02:13:37.608Z,0
2017-01-08T02:14:18.188Z,0
2017-01-08T02:14:58.785Z,0
2017-01-08T02:15:39.366Z,0
2017-01-08T02:16:19.939Z,0
2017-01-08T02:17:00.532Z,0
2017-01-08T02:17:41.106Z,0
2017-01-08T02:18:21.689Z,0
2017-01-08T02:19:02.276Z,0
2017-01-08T02:19:42.860Z,0
2017-01-08T02:20:23.463Z,0
2017-01-08T02:21:04.042Z,0
2017-01-08T02:21:44.632Z,0
2017-01-08T02:22:25.212Z,0
2017-01-08T02:23:05.796Z,0
2017-01-08T02:23:46.382Z,0
2017-01-08T02:24:26.970Z,0
2017-01-08T02:25:07.580Z,0
2017-01-08T02:25:48.168Z,0
2017-01-08T02:26:28.755Z,0
2017-01-08T02:27:09.340Z,0
2017-01-08T02:27:49.929Z,0
2017-01-08T02:28:30.516Z,0
2017-01-08T02:29:11.103Z,0
2017-01-08T02:29:51.681Z,0
2017-01-08T02:30:32.255Z,0
2017-01-08T02:31:12.849Z,0
2017-01-08T02:31:53.453Z,0
2017-01-08T02:32:34.040Z,0
2017-01-08T02:33:14.623Z,0
2017-01-08T02:33:55.210Z,0
2017-01-08T02:34:35.792Z,0
2017-01-08T02:35:16.380Z,0
2017-01-08T02:35:56.972Z,0
2017-01-08T02:36:37.562Z,0
2017-01-08T02:37:18.155Z,0
2017-01-08T02:37:58.736Z,0
2017-01-08T02:38:39.332Z,0
2017-01-08T02:39:19.932Z,0
2017-01-08T02:40:00.513Z,0
2017-01-08T02:40:41.090Z,0
2017-01-08T02:41:21.682Z,0
2017-01-08T02:42:02.263Z,0
2017-01-08T02:42:42.842Z,0
2017-01-08T02:43:23.424Z,0
2017-01-08T02:44:04.014Z,0
2017-01-08T02:44:44.602Z,0
2017-01-08T02:45:25.184Z,0
2017-01-08T02:46:05.770Z,0
2017-01-08T02:46:46.359Z,0
2017-01-08T02:47:26.948Z,0
2017-01-08T02:48:07.527Z,0
2017-01-08T02:48:48.129Z,0
2017-01-08T02:49:28.708Z,0
2017-01-08T02:50:09.287Z,0
2017-01-08T02:50:49.894Z,0
2017-01-08T02:51:30.481Z,0
2017-01-08T02:52:11.063Z,0
2017-01-08T02:52:51.650Z,0
2017-01-08T02:53:32.235Z,0
2017-01-08T02:54:12.827Z,0
2017-01-08T02:54:53.407Z,0
2017-01-08T02:55:33.992Z,0
2017-01-08T02:56:14.573Z,0
2017-01-08T02:56:55.164Z,0
2017-01-08T02:57:35.746Z,0
2017-01-08T02:58:16.332Z,0
2017-01-08T02:58:56.914Z,0
2017-01-08T02:59:37.508Z,0
2017-01-08T03:00:18.078Z,0
2017-01-08T03:00:58.667Z,0
2017-01-08T03:01:39.253Z,0
2017-01-08T03:02:19.843Z,0
2017-01-08T03:03:00.417Z,0
2017-01-08T03:03:40.997Z,0
2017-01-08T03:04:21.585Z,0
2017-01-08T03:05:02.163Z,0
2017-01-08T03:05:42.737Z,0
2017-01-08T03:06:23.331Z,0
2017-01-08T03:07:03.920Z,0
2017-01-08T03:07:44.501Z,0
2017-01-08T03:08:25.080Z,0
2017-01-08T03:09:05.698Z,0
2017-01-08T03:09:46.275Z,0
2017-01-08T03:10:26.851Z,0
2017-01-08T03:11:07.444Z,0
2017-01-08T03:11:48.043Z,0
2017-01-08T03:12:28.638Z,0
2017-01-08T03:13:09.217Z,0
2017-01-08T03:13:49.797Z,0
2017-01-08T03:14:30.379Z,0
2017-01-08T03:15:10.965Z,0
2017-01-08T03:15:51.546Z,0
2017-01-08T03:16:32.133Z,0
2017-01-08T03:17:12.736Z,0
2017-01-08T03:17:53.318Z,0
2017-01-08T03:18:33.904Z,0
2017-01-08T03:19:14.497Z,0
2017-01-08T03:19:55.082Z,0
2017-01-08T03:20:35.677Z,0
2017-01-08T03:21:16.257Z,0
2017-01-08T03:21:56.841Z,0
2017-01-08T03:22:37.416Z,0
2017-01-08T03:23:17.994Z,0
2017-01-08T03:23:58.576Z,0
2017-01-08T03:24:39.175Z,0
2017-01-08T03:25:19.750Z,0
2017-01-08T03:26:00.336Z,0
2017-01-08T03:26:40.923Z,0
2017-01-08T03:27:21.511Z,0
2017-01-08T03:28:02.101Z,0
2017-01-08T03:28:42.685Z,0
2017-01-08T03:29:23.277Z,0
2017-01-08T03:30:03.861Z,0
2017-01-08T03:30:44.453Z,0
2017-01-08T03:31:25.031Z,0
2017-01-08T03:32:05.614Z,0
2017-01-08T03:32:46.201Z,0
2017-01-08T03:33:26.786Z,0
2017-01-08T03:34:07.371Z,0
2017-01-08T03:34:47.957Z,0
2017-01-08T03:35:28.545Z,0
2017-01-08T03:36:09.128Z,0
2017-01-08T03:36:49.725Z,0
2017-01-08T03:37:30.313Z,0
2017-01-08T03:38:10.894Z,0
2017-01-08T03:38:51.474Z,0
2017-01-08T03:39:32.069Z,0
2017-01-08T03:40:12.639Z,0
2017-01-08T03:40:53.229Z,0
2017-01-08T03:41:33.829Z,0
2017-01-08T03:42:14.425Z,0
2017-01-08T03:42:55.035Z,0
2017-01-08T03:43:35.593Z,0
2017-01-08T03:44:16.180Z,0
2017-01-08T03:44:56.776Z,0
2017-01-08T03:45:37.385Z,0
2017-01-08T03:46:17.994Z,0
2017-01-08T03:46:58.588Z,0
2017-01-08T03:47:39.187Z,0
2017-01-08T03:48:19.775Z,0
2017-01-08T03:49:00.350Z,0
2017-01-08T03:49:40.952Z,0
2017-01-08T03:50:21.538Z,0
2017-01-08T03:51:02.152Z,0
2017-01-08T03:51:42.731Z,0
2017-01-08T03:52:23.310Z,0
2017-01-08T03:53:03.891Z,0
2017-01-08T03:53:44.474Z,0
2017-01-08T03:54:25.064Z,0
2017-01-08T03:55:05.662Z,0
2017-01-08T03:55:46.237Z,0
2017-01-08T03:56:26.820Z,0
2017-01-08T03:57:07.400Z,0
2017-01-08T03:57:47.982Z,0
2017-01-08T03:58:28.562Z,0
2017-01-08T03:59:09.174Z,0
2017-01-08T03:59:49.783Z,0
2017-01-08T04:00:30.375Z,0
2017-01-08T04:01:10.981Z,0
2017-01-08T04:01:51.573Z,0
2017-01-08T04:02:32.187Z,0
2017-01-08T04:03:12.775Z,0
2017-01-08T04:03:53.387Z,0
2017-01-08T04:04:33.978Z,0
2017-01-08T04:05:14.591Z,0
2017-01-08T04:05:55.185Z,0
2017-01-08T04:06:35.777Z,0
2017-01-08T04:07:16.353Z,0
2017-01-08T04:07:56.941Z,0
2017-01-08T04:08:37.523Z,0
2017-01-08T04:09:18.104Z,0
2017-01-08T04:09:58.691Z,0
2017-01-08T04:10:39.268Z,0
2017-01-08T04:11:19.850Z,0
2017-01-08T04:12:00.432Z,0
2017-01-08T04:12:41.006Z,0
2017-01-08T04:13:21.593Z,0
2017-01-08T04:14:02.181Z,0
2017-01-08T04:14:42.760Z,0
2017-01-08T04:15:23.363Z,0
2017-01-08T04:16:03.953Z,0
2017-01-08T04:16:44.552Z,0
2017-01-08T04:17:25.144Z,0
2017-01-08T04:18:05.720Z,0
2017-01-08T04:18:46.318Z,0
2017-01-08T04:19:26.895Z,0
2017-01-08T04:20:07.478Z,0
2017-01-08T04:20:48.052Z,0
2017-01-08T04:21:28.632Z,0
2017-01-08T04:22:09.214Z,0
2017-01-08T04:22:49.819Z,0
2017-01-08T04:23:30.402Z,0
2017-01-08T04:24:10.987Z,0
2017-01-08T04:24:51.568Z,0
2017-01-08T04:25:32.149Z,0
2017-01-08T04:26:12.731Z,0
2017-01-08T04:26:53.331Z,0
2017-01-08T04:27:33.933Z,0
2017-01-08T04:28:14.520Z,0
2017-01-08T04:28:55.093Z,0
2017-01-08T04:29:35.684Z,0
2017-01-08T04:30:16.258Z,0
2017-01-08T04:30:56.842Z,0
2017-01-08T04:31:37.420Z,0
2017-01-08T04:32:18.000Z,0
2017-01-08T04:32:58.590Z,0
2017-01-08T04:33:39.174Z,0
2017-01-08T04:34:19.759Z,0
2017-01-08T04:35:00.347Z,0
2017-01-08T04:35:40.925Z,0
2017-01-08T04:36:21.500Z,0
2017-01-08T04:37:02.077Z,0
2017-01-08T04:37:42.662Z,0
2017-01-08T04:38:23.243Z,0
2017-01-08T04:39:03.845Z,0
2017-01-08T04:39:44.437Z,0
2017-01-08T04:40:25.024Z,0
2017-01-08T04:41:05.616Z,0
2017-01-08T04:41:46.207Z,0
2017-01-08T04:42:26.797Z,0
2017-01-08T04:43:07.386Z,0
2017-01-08T04:43:47.985Z,0
2017-01-08T04:44:28.562Z,0
2017-01-08T04:45:09.141Z,0
2017-01-08T04:45:49.739Z,0
2017-01-08T04:46:30.320Z,0
2017-01-08T04:47:10.918Z,0
2017-01-08T04:47:51.507Z,0
2017-01-08T04:48:32.111Z,0
2017-01-08T04:49:12.665Z,0
2017-01-08T04:49:53.248Z,0
2017-01-08T04:50:33.836Z,0
2017-01-08T04:51:14.422Z,0
2017-01-08T04:51:55.018Z,0
2017-01-08T04:52:35.616Z,0
2017-01-08T04:53:16.207Z,0
2017-01-08T04:53:56.789Z,0
2017-01-08T04:54:37.379Z,0
2017-01-08T04:55:17.972Z,0
2017-01-08T04:55:58.561Z,0
2017-01-08T04:56:39.143Z,0
2017-01-08T04:57:19.732Z,0
2017-01-08T04:58:00.320Z,0
2017-01-08T04:58:40.895Z,0
2017-01-08T04:59:21.478Z,0
2017-01-08T05:00:02.057Z,0
2017-01-08T05:00:42.640Z,0
2017-01-08T05:01:23.216Z,0
2017-01-08T05:02:03.797Z,0
2017-01-08T05:02:44.392Z,0
2017-01-08T05:03:24.989Z,0
2017-01-08T05:04:05.592Z,0
2017-01-08T05:04:46.183Z,0
2017-01-08T05:05:26.786Z,0
2017-01-08T05:06:07.362Z,0
2017-01-08T05:06:47.949Z,0
2017-01-08T05:07:28.556Z,0
2017-01-08T05:08:09.160Z,0
2017-01-08T05:08:49.760Z,0
2017-01-08T05:09:30.362Z,0
2017-01-08T05:10:10.956Z,0
2017-01-08T05:10:51.564Z,0
2017-01-08T05:11:32.174Z,0
2017-01-08T05:12:12.757Z,0
2017-01-08T05:12:53.335Z,0
2017-01-08T05:13:33.913Z,0
2017-01-08T05:14:14.516Z,0
2017-01-08T05:14:55.124Z,0
2017-01-08T05:15:35.730Z,0
2017-01-08T05:16:16.314Z,0
2017-01-08T05:16:56.904Z,0
2017-01-08T05:17:37.489Z,0
2017-01-08T05:18:18.079Z,0
2017-01-08T05:18:58.670Z,0
2017-01-08T05:19:39.252Z,0
2017-01-08T05:20:19.839Z,0
2017-01-08T05:21:00.423Z,0
2017-01-08T05:21:41.004Z,0
2017-01-08T05:22:21.589Z,0
2017-01-08T05:23:02.181Z,0
2017-01-08T05:23:42.766Z,0
2017-01-08T05:24:23.347Z,0
2017-01-08T05:25:03.945Z,0
2017-01-08T05:25:44.547Z,0
2017-01-08T05:26:25.153Z,0
2017-01-08T05:27:05.735Z,0
2017-01-08T05:27:46.310Z,0
2017-01-08T05:28:26.895Z,0
2017-01-08T05:29:07.497Z,0
2017-01-08T05:29:48.088Z,0
2017-01-08T05:30:28.670Z,0
2017-01-08T05:31:09.257Z,0
2017-01-08T05:31:49.846Z,0
2017-01-08T05:32:30.423Z,0
2017-01-08T05:33:11.012Z,0
2017-01-08T05:33:51.605Z,0
2017-01-08T05:34:32.212Z,0
2017-01-08T05:35:12.806Z,0
2017-01-08T05:35:53.383Z,0
2017-01-08T05:36:33.972Z,0
2017-01-08T05:37:14.572Z,0
2017-01-08T05:37:55.158Z,0
2017-01-08T05:38:35.740Z,0
2017-01-08T05:39:16.328Z,0
2017-01-08T05:39:56.910Z,0
2017-01-08T05:40:37.502Z,0
2017-01-08T05:41:18.095Z,0
2017-01-08T05:41:58.672Z,0
2017-01-08T05:42:39.264Z,0
2017-01-08T05:43:19.847Z,0
2017-01-08T05:44:00.437Z,0
2017-01-08T05:44:41.028Z,0
2017-01-08T05:45:21.607Z,0
2017-01-08T05:46:02.189Z,0
2017-01-08T05:46:42.769Z,0
2017-01-08T05:47:23.344Z,0
2017-01-08T05:48:03.940Z,0
2017-01-08T05:48:44.529Z,0
2017-01-08T05:49:25.132Z,0
2017-01-08T05:50:05.717Z,0
2017-01-08T05:50:46.308Z,0
2017-01-08T05:51:26.898Z,0
2017-01-08T05:52:07.499Z,0
2017-01-08T05:52:48.091Z,0
2017-01-08T05:53:28.671Z,0
2017-01-08T05:54:09.265Z,0
2017-01-08T05:54:49.865Z,0
2017-01-08T05:55:30.459Z,0
2017-01-08T05:56:11.040Z,0
2017-01-08T05:56:51.631Z,0
2017-01-08T05:57:32.224Z,0
2017-01-08T05:58:12.811Z,0
2017-01-08T05:58:53.400Z,0
2017-01-08T05:59:33.993Z,0
2017-01-08T06:00:14.569Z,0
2017-01-08T06:00:55.150Z,0
2017-01-08T06:01:35.748Z,0
2017-01-08T06:02:16.362Z,0
2017-01-08T06:02:56.954Z,0
2017-01-08T06:03:37.532Z,0
2017-01-08T06:04:18.117Z,0
2017-01-08T06:04:58.695Z,0
2017-01-08T06:05:39.285Z,0
2017-01-08T06:06:19.875Z,0
2017-01-08T06:07:00.468Z,0
2017-01-08T06:07:41.042Z,0
2017-01-08T06:08:21.626Z,0
2017-01-08T06:09:02.206Z,0
2017-01-08T06:09:42.787Z,0
2017-01-08T06:10:23.387Z,0
2017-01-08T06:11:03.963Z,0
2017-01-08T06:11:44.539Z,0
2017-01-08T06:12:25.137Z,0
2017-01-08T06:13:05.730Z,0
2017-01-08T06:13:46.335Z,0
2017-01-08T06:14:26.934Z,0
2017-01-08T06:15:07.567Z,0
2017-01-08T06:15:48.155Z,0
2017-01-08T06:16:28.743Z,0
2017-01-08T06:17:09.355Z,0
2017-01-08T06:17:49.937Z,0
2017-01-08T06:18:30.513Z,0
2017-01-08T06:19:11.114Z,0
2017-01-08T06:19:51.710Z,0
2017-01-08T06:20:32.308Z,0
2017-01-08T06:21:12.912Z,0
2017-01-08T06:21:53.496Z,0
2017-01-08T06:22:34.087Z,0
2017-01-08T06:23:14.665Z,0
2017-01-08T06:23:55.252Z,0
2017-01-08T06:24:35.830Z,0
2017-01-08T06:25:16.420Z,0
2017-01-08T06:25:57.026Z,0
2017-01-08T06:26:37.619Z,0
2017-01-08T06:27:18.211Z,0
2017-01-08T06:27:58.787Z,0
2017-01-08T06:28:39.371Z,0
2017-01-08T06:29:19.966Z,0
2017-01-08T06:30:00.542Z,0
2017-01-08T06:30:41.122Z,0
2017-01-08T06:31:21.703Z,0
2017-01-08T06:32:02.287Z,0
2017-01-08T06:32:42.866Z,0
2017-01-08T06:33:23.439Z,0
2017-01-08T06:34:04.027Z,0
2017-01-08T06:34:44.601Z,0
2017-01-08T06:35:25.197Z,0
2017-01-08T06:36:05.778Z,0
2017-01-08T06:36:46.356Z,0
2017-01-08T06:37:26.944Z,0
2017-01-08T06:38:07.537Z,0
2017-01-08T06:38:48.136Z,0
2017-01-08T06:39:28.716Z,0
2017-01-08T06:40:09.301Z,0
2017-01-08T06:40:49.896Z,0
2017-01-08T06:41:30.490Z,0
2017-01-08T06:42:11.071Z,0
2017-01-08T06:42:51.655Z,0
2017-01-08T06:43:32.253Z,0
2017-01-08T06:44:12.856Z,0
2017-01-08T06:44:53.430Z,0
2017-01-08T06:45:34.018Z,0
2017-01-08T06:46:14.613Z,0
2017-01-08T06:46:55.202Z,0
2017-01-08T06:47:35.780Z,0
2017-01-08T06:48:16.376Z,0
2017-01-08T06:48:56.979Z,0
2017-01-08T06:49:37.574Z,0
2017-01-08T06:50:18.173Z,0
2017-01-08T06:50:58.756Z,0
2017-01-08T06:51:39.328Z,0
2017-01-08T06:52:19.921Z,0
2017-01-08T06:53:00.492Z,0
2017-01-08T06:53:41.082Z,0
2017-01-08T06:54:21.662Z,0
2017-01-08T06:55:02.260Z,0
2017-01-08T06:55:42.841Z,0
2017-01-08T06:56:23.440Z,0
2017-01-08T06:57:04.042Z,0
2017-01-08T06:57:44.633Z,0
2017-01-08T06:58:25.223Z,0
2017-01-08T06:59:05.819Z,0
2017-01-08T06:59:46.402Z,0
2017-01-08T07:00:26.986Z,0
2017-01-08T07:01:07.570Z,0
2017-01-08T07:01:48.154Z,0
2017-01-08T07:02:28.734Z,0
2017-01-08T07:03:09.352Z,0
2017-01-08T07:03:49.933Z,0
2017-01-08T07:04:30.524Z,0
2017-01-08T07:05:11.109Z,0
2017-01-08T07:05:51.687Z,0
2017-01-08T07:06:32.275Z,0
2017-01-08T07:07:12.857Z,0
2017-01-08T07:07:53.457Z,0
2017-01-08T07:08:34.066Z,0
2017-01-08T07:09:14.659Z,0
2017-01-08T07:09:55.246Z,0
2017-01-08T07:10:35.827Z,0
2017-01-08T07:11:16.405Z,0
2017-01-08T07:11:56.992Z,0
2017-01-08T07:12:37.597Z,0
2017-01-08T07:13:18.188Z,0
2017-01-08T07:13:58.772Z,0
2017-01-08T07:14:39.360Z,0
2017-01-08T07:15:19.953Z,0
2017-01-08T07:16:00.564Z,0
2017-01-08T07:16:41.157Z,0
2017-01-08T07:17:21.738Z,0
2017-01-08T07:18:02.328Z,4
2017-01-08T07:18:42.912Z,4
2017-01-08T07:19:23.509Z,4
2017-01-08T07:20:04.103Z,4
2017-01-08T07:20:44.678Z,0
2017-01-08T07:21:25.265Z,0
2017-01-08T07:22:05.849Z,0
2017-01-08T07:22:46.436Z,0
2017-01-08T07:23:27.025Z,0
2017-01-08T07:24:07.607Z,0
2017-01-08T07:24:48.184Z,4
2017-01-08T07:25:28.765Z,4
2017-01-08T07:26:09.344Z,0
2017-01-08T07:26:49.935Z,0
2017-01-08T07:27:30.518Z,4
2017-01-08T07:28:11.095Z,4
2017-01-08T07:28:51.687Z,0
2017-01-08T07:29:32.285Z,4
2017-01-08T07:30:12.893Z,4
2017-01-08T07:30:53.498Z,4
2017-01-08T07:31:34.099Z,4
2017-01-08T07:32:14.714Z,4
2017-01-08T07:32:55.298Z,4
2017-01-08T07:33:35.887Z,8
2017-01-08T07:34:16.477Z,4
2017-01-08T07:34:57.056Z,4
2017-01-08T07:35:37.672Z,4
2017-01-08T07:36:18.268Z,8
2017-01-08T07:36:58.849Z,4
2017-01-08T07:37:39.436Z,8
2017-01-08T07:38:20.025Z,8
2017-01-08T07:39:00.617Z,8
2017-01-08T07:39:41.197Z,8
2017-01-08T07:40:21.779Z,8
2017-01-08T07:41:02.374Z,8
2017-01-08T07:41:42.968Z,8
2017-01-08T07:42:23.541Z,8
2017-01-08T07:43:04.131Z,8
2017-01-08T07:43:44.734Z,12
2017-01-08T07:44:25.328Z,8
2017-01-08T07:45:05.928Z,12
2017-01-08T07:45:46.530Z,8
2017-01-08T07:46:27.120Z,12
2017-01-08T07:47:07.720Z,12
2017-01-08T07:47:48.312Z,12
2017-01-08T07:48:28.896Z,12
2017-01-08T07:49:09.481Z,16
2017-01-08T07:49:50.062Z,12
2017-01-08T07:50:30.650Z,16
2017-01-08T07:51:11.230Z,16
2017-01-08T07:51:51.839Z,16
2017-01-08T07:52:32.449Z,16
2017-01-08T07:53:13.044Z,16
2017-01-08T07:53:53.652Z,16
2017-01-08T07:54:34.246Z,16
2017-01-08T07:55:14.823Z,20
2017-01-08T07:55:55.408Z,16
2017-01-08T07:56:35.990Z,20
2017-01-08T07:57:16.569Z,20
2017-01-08T07:57:57.169Z,16
2017-01-08T07:58:37.771Z,20
2017-01-08T07:59:18.359Z,20
2017-01-08T07:59:58.940Z,20
2017-01-08T08:00:39.523Z,20
2017-01-08T08:01:20.119Z,20
2017-01-08T08:02:00.726Z,24
2017-01-08T08:02:41.304Z,20
2017-01-08T08:03:21.904Z,20
2017-01-08T08:04:02.487Z,24
2017-01-08T08:04:43.077Z,24
2017-01-08T08:05:23.659Z,24
2017-01-08T08:06:04.238Z,24
2017-01-08T08:06:44.817Z,24
2017-01-08T08:07:25.414Z,24
2017-01-08T08:08:05.996Z,28
2017-01-08T08:08:46.590Z,24
2017-01-08T08:09:27.165Z,24
2017-01-08T08:10:07.749Z,24
2017-01-08T08:10:48.338Z,28
2017-01-08T08:11:28.929Z,28
2017-01-08T08:12:09.506Z,28
2017-01-08T08:12:50.097Z,28
2017-01-08T08:13:30.677Z,28
2017-01-08T08:14:11.267Z,28
2017-01-08T08:14:51.859Z,28
2017-01-08T08:15:32.440Z,32
2017-01-08T08:16:13.027Z,28
2017-01-08T08:16:53.611Z,28
2017-01-08T08:17:34.188Z,28
2017-01-08T08:18:14.768Z,32
2017-01-08T08:18:55.358Z,32
2017-01-08T08:19:35.942Z,32
2017-01-08T08:20:16.549Z,28
2017-01-08T08:20:57.144Z,32
2017-01-08T08:21:37.736Z,32
2017-01-08T08:22:18.323Z,32
2017-01-08T08:22:58.905Z,32
2017-01-08T08:23:39.518Z,32
2017-01-08T08:24:20.118Z,36
2017-01-08T08:25:00.708Z,32
2017-01-08T08:25:41.313Z,32
2017-01-08T08:26:21.915Z,32
2017-01-08T08:27:02.494Z,32
2017-01-08T08:27:43.073Z,36
2017-01-08T08:28:23.664Z,36
2017-01-08T08:29:04.245Z,32
2017-01-08T08:29:44.827Z,32
2017-01-08T08:30:25.414Z,32
2017-01-08T08:31:05.995Z,36
2017-01-08T08:31:46.579Z,36
2017-01-08T08:32:27.158Z,36
2017-01-08T08:33:07.748Z,36
2017-01-08T08:33:48.334Z,36
2017-01-08T08:34:28.934Z,36
2017-01-08T08:35:09.526Z,36
2017-01-08T08:35:50.126Z,36
2017-01-08T08:36:30.709Z,36
2017-01-08T08:37:11.292Z,36
2017-01-08T08:37:51.895Z,40
2017-01-08T08:38:32.494Z,40
2017-01-08T08:39:13.092Z,40
2017-01-08T08:39:53.670Z,40
2017-01-08T08:40:34.258Z,36
2017-01-08T08:41:14.843Z,36
2017-01-08T08:41:55.441Z,36
2017-01-08T08:42:36.028Z,40
2017-01-08T08:43:16.607Z,40
2017-01-08T08:43:57.178Z,40
2017-01-08T08:44:37.782Z,40
2017-01-08T08:45:18.373Z,40
2017-01-08T08:45:58.952Z,40
2017-01-08T08:46:39.526Z,40
2017-01-08T08:47:20.114Z,40
2017-01-08T08:48:00.692Z,40
2017-01-08T08:48:41.281Z,40
2017-01-08T08:49:21.882Z,40
2017-01-08T08:50:02.463Z,40
2017-01-08T08:50:43.069Z,40
2017-01-08T08:51:23.651Z,40
2017-01-08T08:52:04.234Z,44
2017-01-08T08:52:44.844Z,44
2017-01-08T08:53:25.439Z,44
2017-01-08T08:54:06.045Z,44
2017-01-08T08:54:46.633Z,40
2017-01-08T08:55:27.205Z,40
2017-01-08T08:56:07.793Z,40
2017-01-08T08:56:48.369Z,40
2017-01-08T08:57:28.957Z,40
2017-01-08T08:58:09.547Z,44
2017-01-08T08:58:50.134Z,44
2017-01-08T08:59:30.724Z,44
2017-01-08T09:00:11.304Z,44
2017-01-08T09:00:51.899Z,44
2017-01-08T09:01:32.484Z,44
2017-01-08T09:02:13.082Z,44
2017-01-08T09:02:53.697Z,44
2017-01-08T09:03:34.305Z,44
2017-01-08T09:04:14.893Z,44
2017-01-08T09:04:55.468Z,44
2017-01-08T09:05:36.074Z,44
2017-01-08T09:06:16.668Z,44
2017-01-08T09:06:57.258Z,44
2017-01-08T09:07:37.835Z,44
2017-01-08T09:08:18.426Z,44
2017-01-08T09:08:59.027Z,44
2017-01-08T09:09:39.626Z,44
2017-01-08T09:10:20.218Z,44
2017-01-08T09:11:00.821Z,44
2017-01-08T09:11:41.405Z,44
2017-01-08T09:12:21.994Z,44
2017-01-08T09:13:02.579Z,44
2017-01-08T09:13:43.167Z,48
2017-01-08T09:14:23.750Z,48
2017-01-08T09:15:04.336Z,48
2017-01-08T09:15:44.954Z,48
2017-01-08T09:16:25.544Z,48
2017-01-08T09:17:06.139Z,48
2017-01-08T09:17:46.723Z,44
2017-01-08T09:18:27.317Z,44
2017-01-08T09:19:07.904Z,44
2017-01-08T09:19:48.480Z,44
2017-01-08T09:20:29.066Z,44
2017-01-08T09:21:09.661Z,44
2017-01-08T09:21:50.248Z,44
2017-01-08T09:22:30.832Z,44
2017-01-08T09:23:11.439Z,44
2017-01-08T09:23:52.037Z,44
2017-01-08T09:24:32.633Z,44
2017-01-08T09:25:13.231Z,48
2017-01-08T09:25:53.834Z,48
2017-01-08T09:26:34.421Z,48
2017-01-08T09:27:15.002Z,48
2017-01-08T09:27:55.586Z,48
2017-01-08T09:28:36.184Z,48
2017-01-08T09:29:16.769Z,48
2017-01-08T09:29:57.370Z,48
2017-01-08T09:30:37.955Z,48
2017-01-08T09:31:18.550Z,48
2017-01-08T09:31:59.128Z,48
2017-01-08T09:32:39.697Z,48
2017-01-08T09:33:20.289Z,48
2017-01-08T09:34:00.871Z,48
2017-01-08T09:34:41.461Z,48
2017-01-08T09:35:22.051Z,48
2017-01-08T09:36:02.635Z,48
2017-01-08T09:36:43.226Z,48
2017-01-08T09:37:23.808Z,48
2017-01-08T09:38:04.389Z,48
2017-01-08T09:38:44.971Z,48
2017-01-08T09:39:25.565Z,48
2017-01-08T09:40:06.156Z,48
2017-01-08T09:40:46.738Z,48
2017-01-08T09:41:27.344Z,44
2017-01-08T09:42:07.925Z,44
2017-01-08T09:42:48.520Z,44
2017-01-08T09:43:29.098Z,44
2017-01-08T09:44:09.687Z,48
2017-01-08T09:44:50.279Z,48
2017-01-08T09:45:30.875Z,48
2017-01-08T09:46:11.450Z,48
2017-01-08T09:46:52.568Z,48
2017-01-08T09:47:33.158Z,48
2017-01-08T09:48:13.743Z,48
2017-01-08T09:48:54.345Z,48
2017-01-08T09:49:34.950Z,48
2017-01-08T09:50:15.543Z,48
2017-01-08T09:50:56.149Z,48
2017-01-08T09:51:36.746Z,48
2017-01-08T09:52:17.336Z,48
2017-01-08T09:52:57.920Z,48
2017-01-08T09:53:38.506Z,48
2017-01-08T09:54:19.087Z,48
2017-01-08T09:54:59.673Z,48
2017-01-08T09:55:40.256Z,48